createdAt,value
2023-02-28T00:01:34.415Z,64.02
2023-02-28T00:04:02.505Z,64.03
2023-02-28T00:06:30.602Z,64.27
2023-02-28T00:08:58.282Z,63.60
2023-02-28T00:11:25.766Z,64.33
2023-02-28T00:13:53.422Z,63.70
2023-02-28T00:16:23.363Z,64.20
2023-02-28T00:18:51.321Z,63.90
2023-02-28T00:21:20.927Z,63.55
2023-02-28T00:23:48.946Z,63.80
2023-02-28T00:26:16.944Z,63.74
2023-02-28T00:28:46.694Z,63.92
2023-02-28T00:31:14.255Z,64.13
2023-02-28T00:33:41.887Z,63.97
2023-02-28T00:36:12.111Z,63.86
2023-02-28T00:38:40.972Z,63.78
2023-02-28T00:41:09.088Z,63.96
2023-02-28T00:43:39.264Z,63.95
2023-02-28T00:46:07.723Z,63.44
2023-02-28T00:48:35.630Z,63.67
2023-02-28T00:51:04.873Z,63.75
2023-02-28T00:53:33.918Z,63.68
2023-02-28T00:56:01.767Z,64.05
2023-02-28T00:58:29.254Z,63.54
2023-02-28T01:00:59.369Z,63.95
2023-02-28T01:03:29.335Z,64.21
2023-02-28T01:05:59.935Z,64.07
2023-02-28T01:08:27.857Z,64.15
2023-02-28T01:10:58.162Z,64.43
2023-02-28T01:13:26.489Z,63.65
2023-02-28T01:15:56.767Z,64.18
2023-02-28T01:18:25.584Z,63.77
2023-02-28T01:20:53.581Z,64.05
2023-02-28T01:23:24.301Z,63.62
2023-02-28T01:25:55.227Z,64.10
2023-02-28T01:28:22.832Z,63.94
2023-02-28T01:30:52.287Z,63.96
2023-02-28T01:33:20.114Z,64.29
2023-02-28T01:35:47.677Z,64.09
2023-02-28T01:38:22.199Z,64.28
2023-02-28T01:40:50.860Z,64.30
2023-02-28T01:43:28.232Z,64.27
2023-02-28T01:45:57.788Z,64.46
2023-02-28T01:48:35.436Z,64.33
2023-02-28T01:51:09.966Z,64.55
2023-02-28T01:53:48.353Z,64.27
2023-02-28T01:56:21.673Z,64.25
2023-02-28T01:58:55.311Z,64.32
2023-02-28T02:01:27.166Z,64.10
2023-02-28T02:03:58.816Z,64.12
2023-02-28T02:06:31.143Z,64.20
2023-02-28T02:08:58.717Z,64.11
2023-02-28T02:11:27.483Z,64.44
2023-02-28T02:14:25.688Z,64.33
2023-02-28T02:17:08.508Z,65.04
2023-02-28T02:20:13.283Z,65.35
2023-02-28T02:22:55.769Z,64.91
2023-02-28T02:25:54.395Z,65.12
2023-02-28T02:28:37.152Z,65.60
2023-02-28T02:31:26.324Z,64.93
2023-02-28T02:34:12.776Z,65.12
2023-02-28T02:36:42.800Z,65.03
2023-02-28T02:39:33.989Z,65.54
2023-02-28T02:42:04.876Z,65.04
2023-02-28T02:44:48.465Z,64.58
2023-02-28T02:47:21.969Z,64.68
2023-02-28T02:49:56.116Z,64.56
2023-02-28T02:52:32.676Z,64.80
2023-02-28T02:55:02.610Z,64.57
2023-02-28T02:57:41.575Z,64.11
2023-02-28T03:00:09.892Z,64.37
2023-02-28T03:02:39.119Z,64.26
2023-02-28T03:05:15.728Z,63.88
2023-02-28T03:07:43.257Z,64.18
2023-02-28T03:10:34.895Z,64.36
2023-02-28T03:13:24.125Z,64.11
2023-02-28T03:16:01.271Z,64.76
2023-02-28T03:18:40.803Z,64.49
2023-02-28T03:21:32.177Z,64.43
2023-02-28T03:24:11.762Z,64.13
2023-02-28T03:26:51.678Z,64.81
2023-02-28T03:29:26.780Z,63.85
2023-02-28T03:32:07.188Z,63.88
2023-02-28T03:34:39.045Z,64.34
2023-02-28T03:37:15.994Z,63.45
2023-02-28T03:39:48.479Z,63.63
2023-02-28T03:42:29.802Z,63.78
2023-02-28T03:45:13.077Z,63.80
2023-02-28T03:47:52.746Z,64.08
2023-02-28T03:50:33.597Z,63.80
2023-02-28T03:53:14.153Z,64.33
2023-02-28T03:55:56.855Z,63.54
2023-02-28T03:58:59.223Z,63.57
2023-02-28T04:01:42.452Z,64.02
2023-02-28T04:04:12.055Z,63.91
2023-02-28T04:06:40.185Z,64.13
2023-02-28T04:11:39.137Z,63.71
2023-02-28T04:14:08.497Z,63.93
2023-02-28T04:16:37.709Z,64.13
2023-02-28T04:19:07.510Z,63.36
2023-02-28T04:21:43.863Z,63.66
2023-02-28T04:24:17.340Z,63.81
2023-02-28T04:26:47.927Z,63.56
2023-02-28T04:29:25.245Z,63.05
2023-02-28T04:31:56.234Z,63.02
2023-02-28T04:34:24.673Z,63.34
2023-02-28T04:37:10.424Z,62.63
2023-02-28T04:39:41.700Z,62.64
2023-02-28T04:42:09.475Z,62.92
2023-02-28T04:44:37.704Z,62.59
2023-02-28T04:47:06.338Z,62.19
2023-02-28T04:49:34.268Z,62.11
2023-02-28T04:52:02.054Z,61.75
2023-02-28T04:54:30.399Z,62.24
2023-02-28T04:56:58.543Z,62.22
2023-02-28T04:59:26.020Z,61.83
2023-02-28T05:01:53.743Z,61.29
2023-02-28T05:04:21.645Z,61.78
2023-02-28T05:06:49.211Z,61.62
2023-02-28T05:09:16.654Z,60.74
2023-02-28T05:11:44.173Z,60.92
2023-02-28T05:14:13.470Z,60.60
2023-02-28T05:16:41.084Z,61.45
2023-02-28T05:19:08.831Z,60.17
2023-02-28T05:21:39.887Z,59.45
2023-02-28T05:24:11.534Z,59.02
2023-02-28T05:26:42.783Z,58.31
2023-02-28T05:29:11.472Z,57.98
2023-02-28T05:31:39.401Z,57.19
2023-02-28T05:34:07.126Z,56.56
2023-02-28T05:36:35.133Z,56.25
2023-02-28T05:39:02.722Z,55.65
2023-02-28T05:41:30.547Z,55.57
2023-02-28T05:43:59.255Z,55.60
2023-02-28T05:46:26.724Z,55.29
2023-02-28T05:48:54.441Z,55.00
2023-02-28T05:51:21.867Z,54.13
2023-02-28T05:53:50.274Z,53.97
2023-02-28T05:56:17.818Z,53.83
2023-02-28T05:58:45.299Z,53.21
2023-02-28T06:01:33.693Z,51.41
2023-02-28T06:04:02.238Z,51.69
2023-02-28T06:06:30.692Z,51.56
2023-02-28T06:08:58.783Z,51.02
2023-02-28T06:11:28.956Z,50.53
2023-02-28T06:13:58.603Z,50.31
2023-02-28T06:16:26.951Z,50.17
2023-02-28T06:18:57.088Z,50.68
2023-02-28T06:21:25.110Z,51.28
2023-02-28T06:23:52.581Z,50.80
2023-02-28T06:26:20.817Z,50.43
2023-02-28T06:28:48.452Z,50.35
2023-02-28T06:31:18.351Z,49.74
2023-02-28T06:33:47.045Z,49.72
2023-02-28T06:36:16.708Z,49.65
2023-02-28T06:38:44.624Z,49.32
2023-02-28T06:41:12.222Z,49.45
2023-02-28T06:43:42.950Z,49.14
2023-02-28T06:46:14.659Z,48.99
2023-02-28T06:48:45.199Z,49.38
2023-02-28T06:51:16.189Z,49.69
2023-02-28T06:53:43.673Z,49.18
2023-02-28T06:56:13.681Z,49.38
2023-02-28T06:58:41.354Z,50.05
2023-02-28T07:01:09.973Z,49.87
2023-02-28T07:03:37.954Z,49.71
2023-02-28T07:06:06.511Z,49.45
2023-02-28T07:08:37.142Z,49.46
2023-02-28T07:11:05.489Z,49.34
2023-02-28T07:13:33.103Z,49.19
2023-02-28T07:16:11.879Z,48.47
2023-02-28T07:18:39.803Z,49.27
2023-02-28T07:21:09.896Z,49.51
2023-02-28T07:23:41.074Z,49.61
2023-02-28T07:26:15.620Z,49.53
2023-02-28T07:28:44.642Z,49.91
2023-02-28T07:31:14.913Z,50.08
2023-02-28T07:33:43.189Z,50.16
2023-02-28T07:36:16.657Z,50.07
2023-02-28T07:38:48.413Z,50.62
2023-02-28T07:41:20.907Z,50.51
2023-02-28T07:43:49.295Z,50.79
2023-02-28T07:46:18.348Z,50.88
2023-02-28T07:48:47.292Z,51.00
2023-02-28T07:51:15.024Z,51.23
2023-02-28T07:53:42.584Z,51.20
2023-02-28T07:56:11.790Z,51.14
2023-02-28T07:58:39.459Z,51.10
2023-02-28T08:01:08.972Z,50.71
2023-02-28T08:03:37.166Z,50.78
2023-02-28T08:06:06.032Z,50.68
2023-02-28T08:08:33.887Z,50.51
2023-02-28T08:11:03.005Z,50.80
2023-02-28T08:13:31.392Z,50.97
2023-02-28T08:15:59.089Z,50.92
2023-02-28T08:18:26.702Z,50.88
2023-02-28T08:20:54.252Z,50.59
2023-02-28T08:23:21.772Z,50.13
2023-02-28T08:25:57.017Z,49.59
2023-02-28T08:28:27.132Z,49.88
2023-02-28T08:30:56.020Z,49.98
2023-02-28T08:33:24.544Z,50.38
2023-02-28T08:35:56.716Z,50.49
2023-02-28T08:38:24.782Z,50.28
2023-02-28T08:40:59.700Z,50.12
2023-02-28T08:43:27.756Z,50.48
2023-02-28T08:45:58.079Z,50.97
2023-02-28T08:48:28.041Z,51.19
2023-02-28T08:51:07.153Z,51.69
2023-02-28T08:53:36.845Z,51.97
2023-02-28T08:56:07.712Z,52.27
2023-02-28T08:58:36.282Z,52.37
2023-02-28T09:01:19.706Z,52.89
2023-02-28T09:03:49.108Z,52.71
2023-02-28T09:06:18.538Z,53.09
2023-02-28T09:08:46.374Z,53.01
2023-02-28T09:11:14.373Z,53.49
2023-02-28T09:13:42.202Z,54.13
2023-02-28T09:16:13.142Z,53.87
2023-02-28T09:18:41.682Z,53.93
2023-02-28T09:21:12.526Z,54.11
2023-02-28T09:23:40.036Z,54.18
2023-02-28T09:26:08.425Z,54.51
2023-02-28T09:28:35.968Z,54.33
2023-02-28T09:31:05.768Z,54.17
2023-02-28T09:33:35.396Z,54.03
2023-02-28T09:36:04.917Z,54.39
2023-02-28T09:38:32.700Z,54.05
2023-02-28T09:41:04.134Z,54.29
2023-02-28T09:43:39.008Z,54.15
2023-02-28T09:46:28.256Z,54.69
2023-02-28T09:48:57.079Z,54.30
2023-02-28T09:51:36.419Z,54.26
2023-02-28T09:54:04.459Z,54.36
2023-02-28T09:56:37.823Z,54.43
2023-02-28T09:59:10.997Z,54.32
2023-02-28T10:01:55.324Z,54.20
2023-02-28T10:04:41.121Z,54.45
2023-02-28T10:07:29.388Z,55.04
2023-02-28T10:10:03.687Z,54.97
2023-02-28T10:12:34.546Z,55.14
2023-02-28T10:15:04.073Z,54.74
2023-02-28T10:17:54.769Z,55.02
2023-02-28T10:20:33.780Z,54.83
2023-02-28T10:23:36.204Z,54.95
2023-02-28T10:26:14.034Z,55.26
2023-02-28T10:28:41.675Z,55.28
2023-02-28T10:31:17.725Z,55.48
2023-02-28T10:33:46.433Z,55.59
2023-02-28T10:36:26.847Z,55.74
2023-02-28T10:38:55.911Z,55.38
2023-02-28T10:41:37.426Z,55.87
2023-02-28T10:44:21.091Z,55.96
2023-02-28T10:46:49.640Z,55.68
2023-02-28T10:49:30.432Z,56.10
2023-02-28T10:52:00.617Z,55.88
2023-02-28T10:54:39.070Z,56.38
2023-02-28T10:57:18.841Z,57.03
2023-02-28T10:59:47.072Z,56.82
2023-02-28T11:02:36.521Z,57.33
2023-02-28T11:05:27.686Z,57.67
2023-02-28T11:07:58.128Z,57.41
2023-02-28T11:10:29.908Z,57.41
2023-02-28T11:13:00.529Z,57.31
2023-02-28T11:15:39.150Z,57.85
2023-02-28T11:18:12.784Z,58.32
2023-02-28T11:20:41.575Z,58.11
2023-02-28T11:23:15.058Z,58.69
2023-02-28T11:25:55.498Z,58.65
2023-02-28T11:28:43.279Z,59.29
2023-02-28T11:31:16.733Z,58.96
2023-02-28T11:33:56.794Z,59.08
2023-02-28T11:36:33.726Z,58.93
2023-02-28T11:39:09.722Z,58.56
2023-02-28T11:42:03.357Z,59.43
2023-02-28T11:45:06.231Z,59.82
2023-02-28T11:48:11.503Z,59.43
2023-02-28T11:50:47.624Z,59.29
2023-02-28T11:53:39.210Z,59.32
2023-02-28T11:56:30.766Z,59.41
2023-02-28T11:59:35.639Z,59.66
2023-02-28T12:02:30.947Z,60.54
2023-02-28T12:05:25.005Z,60.90
2023-02-28T12:08:01.550Z,59.84
2023-02-28T12:10:35.629Z,60.91
2023-02-28T12:13:22.865Z,61.91
2023-02-28T12:16:16.360Z,60.80
2023-02-28T12:19:02.817Z,62.33
2023-02-28T12:21:58.008Z,62.63
2023-02-28T12:24:44.374Z,63.49
2023-02-28T12:27:16.465Z,62.80
2023-02-28T12:29:59.809Z,63.75
2023-02-28T12:32:42.855Z,63.86
2023-02-28T12:35:10.657Z,63.05
2023-02-28T12:38:24.774Z,64.28
2023-02-28T12:41:04.026Z,64.30
2023-02-28T12:43:36.561Z,64.13
2023-02-28T12:46:11.953Z,64.80
2023-02-28T12:48:57.597Z,64.50
2023-02-28T12:51:27.811Z,64.84
2023-02-28T12:54:01.725Z,64.72
2023-02-28T12:57:01.273Z,66.10
2023-02-28T12:59:52.395Z,65.83
2023-02-28T13:02:47.814Z,65.95
2023-02-28T13:05:30.573Z,64.98
2023-02-28T13:08:10.031Z,65.75
2023-02-28T13:10:45.344Z,65.13
2023-02-28T13:13:19.080Z,65.33
2023-02-28T13:16:24.344Z,65.72
2023-02-28T13:35:08.027Z,66.03
2023-02-28T13:42:51.590Z,65.98
2023-02-28T13:46:52.821Z,65.49
2023-02-28T13:49:32.288Z,65.29
2023-02-28T13:52:07.862Z,65.70
2023-02-28T13:55:15.523Z,65.53
2023-02-28T13:58:09.153Z,66.00
2023-02-28T14:01:13.602Z,66.33
2023-02-28T14:04:18.685Z,66.86
2023-02-28T14:07:04.970Z,66.57
2023-02-28T14:09:36.777Z,66.28
2023-02-28T14:12:57.934Z,67.22
2023-02-28T14:15:34.534Z,66.88
2023-02-28T14:18:15.817Z,66.68
2023-02-28T14:20:46.501Z,66.39
2023-02-28T14:23:52.909Z,67.03
2023-02-28T14:26:31.953Z,66.85
2023-02-28T14:29:18.222Z,67.14
2023-02-28T14:32:36.832Z,67.13
2023-02-28T14:35:14.938Z,66.95
2023-02-28T14:37:43.715Z,66.17
2023-02-28T14:40:35.972Z,67.25
2023-02-28T14:43:19.672Z,67.01
2023-02-28T14:45:52.870Z,66.67
2023-02-28T14:48:21.818Z,66.95
2023-02-28T14:50:55.039Z,67.41
2023-02-28T14:53:25.883Z,67.28
2023-02-28T14:55:53.993Z,67.91
2023-02-28T14:58:33.790Z,68.75
2023-02-28T15:01:04.302Z,68.26
2023-02-28T15:03:40.122Z,69.07
2023-02-28T15:06:18.493Z,69.26
2023-02-28T15:08:46.771Z,68.26
2023-02-28T15:11:17.752Z,68.98
2023-02-28T15:13:48.822Z,69.23
2023-02-28T15:16:39.845Z,69.89
2023-02-28T15:19:22.520Z,69.29
2023-02-28T15:21:53.948Z,68.85
2023-02-28T15:24:32.836Z,69.14
2023-02-28T15:27:06.386Z,68.90
2023-02-28T15:29:45.353Z,69.37
2023-02-28T15:32:41.020Z,69.56
2023-02-28T15:35:26.814Z,69.13
2023-02-28T15:37:59.190Z,68.41
2023-02-28T15:40:38.906Z,68.90
2023-02-28T15:43:15.272Z,68.31
2023-02-28T15:45:53.941Z,68.74
2023-02-28T15:48:21.360Z,68.23
2023-02-28T15:50:53.684Z,68.45
2023-02-28T15:53:48.564Z,68.73
2023-02-28T15:56:36.882Z,68.98
2023-02-28T15:59:08.646Z,68.40
2023-02-28T16:01:39.924Z,67.84
2023-02-28T16:04:18.585Z,68.40
2023-02-28T16:07:05.959Z,68.13
2023-02-28T16:09:35.312Z,68.12
2023-02-28T16:12:04.447Z,68.45
2023-02-28T16:14:32.679Z,68.40
2023-02-28T16:17:06.456Z,68.97
2023-02-28T16:19:34.833Z,68.80
2023-02-28T16:22:02.496Z,68.59
2023-02-28T16:24:30.068Z,68.72
2023-02-28T16:26:59.000Z,68.22
2023-02-28T16:29:30.901Z,68.61
2023-02-28T16:31:58.909Z,68.62
2023-02-28T16:34:26.715Z,68.40
2023-02-28T16:36:54.818Z,68.58
2023-02-28T16:39:22.374Z,68.37
2023-02-28T16:41:52.730Z,68.46
2023-02-28T16:44:29.536Z,68.39
2023-02-28T16:46:57.560Z,68.13
2023-02-28T16:49:25.121Z,68.06
2023-02-28T16:51:52.637Z,68.47
2023-02-28T16:54:20.404Z,68.34
2023-02-28T16:56:49.964Z,68.49
2023-02-28T16:59:23.675Z,69.04
2023-02-28T17:01:52.680Z,68.76
2023-02-28T17:04:20.938Z,68.58
2023-02-28T17:06:48.595Z,68.62
2023-02-28T17:09:26.346Z,69.42
2023-02-28T17:11:58.451Z,68.81
2023-02-28T17:14:25.965Z,69.36
2023-02-28T17:16:53.585Z,69.64
2023-02-28T17:19:23.914Z,69.99
2023-02-28T17:21:51.482Z,70.30
2023-02-28T17:24:28.860Z,70.10
2023-02-28T17:26:57.737Z,70.27
2023-02-28T17:29:25.809Z,70.17
2023-02-28T17:31:53.445Z,70.15
2023-02-28T17:34:21.260Z,69.61
2023-02-28T17:36:50.831Z,69.45
2023-02-28T17:39:25.691Z,69.87
2023-02-28T17:41:54.261Z,69.35
2023-02-28T17:44:23.160Z,69.03
2023-02-28T17:46:51.656Z,69.11
2023-02-28T17:49:19.759Z,68.93
2023-02-28T17:51:49.276Z,68.35
2023-02-28T17:54:18.306Z,68.74
2023-02-28T17:56:47.389Z,68.43
2023-02-28T17:59:15.053Z,67.99
2023-02-28T18:01:42.701Z,67.97
2023-02-28T18:04:10.306Z,67.58
2023-02-28T18:06:50.991Z,67.10
2023-02-28T18:09:23.994Z,66.66
2023-02-28T18:11:53.607Z,66.88
2023-02-28T18:14:24.563Z,66.41
2023-02-28T18:16:54.575Z,66.16
2023-02-28T18:19:22.741Z,66.17
2023-02-28T18:21:52.848Z,66.17
2023-02-28T18:24:23.135Z,65.98
2023-02-28T18:26:51.668Z,65.75
2023-02-28T18:29:22.681Z,64.99
2023-02-28T18:31:50.890Z,64.78
2023-02-28T18:34:18.549Z,64.51
2023-02-28T18:36:48.402Z,63.79
2023-02-28T18:39:17.119Z,63.40
2023-02-28T18:41:44.692Z,62.97
2023-02-28T18:44:19.989Z,62.71
2023-02-28T18:46:50.418Z,62.29
2023-02-28T18:49:18.475Z,62.26
2023-02-28T18:51:46.900Z,61.79
2023-02-28T18:54:15.816Z,62.12
2023-02-28T18:56:43.984Z,61.76
2023-02-28T18:59:12.238Z,62.05
2023-02-28T19:01:40.202Z,61.92
2023-02-28T19:04:07.736Z,61.82
2023-02-28T19:06:38.144Z,61.49
2023-02-28T19:09:06.230Z,60.86
2023-02-28T19:11:36.587Z,60.45
2023-02-28T19:14:04.558Z,60.45
2023-02-28T19:16:32.639Z,60.23
2023-02-28T19:19:00.492Z,59.87
2023-02-28T19:21:28.126Z,59.48
2023-02-28T19:23:55.795Z,59.33
2023-02-28T19:26:26.577Z,58.44
2023-02-28T19:28:54.251Z,58.36
2023-02-28T19:31:25.159Z,57.76
2023-02-28T19:33:53.389Z,57.98
2023-02-28T19:36:22.123Z,57.82
2023-02-28T19:38:50.282Z,57.63
2023-02-28T19:41:18.771Z,57.53
2023-02-28T19:43:47.086Z,57.38
2023-02-28T19:46:14.844Z,57.47
2023-02-28T19:48:44.785Z,57.55
2023-02-28T19:51:14.049Z,57.47
2023-02-28T19:53:42.600Z,58.05
2023-02-28T19:56:11.028Z,57.50
2023-02-28T19:58:39.422Z,57.09
2023-02-28T20:01:16.132Z,56.81
2023-02-28T20:03:48.577Z,57.07
2023-02-28T20:06:16.176Z,56.39
2023-02-28T20:08:44.039Z,55.68
2023-02-28T20:11:16.312Z,55.34
2023-02-28T20:13:44.641Z,54.45
2023-02-28T20:16:14.389Z,53.80
2023-02-28T20:18:44.288Z,53.83
2023-02-28T20:21:13.058Z,53.61
2023-02-28T20:23:41.672Z,53.04
2023-02-28T20:26:11.634Z,52.81
2023-02-28T20:28:40.095Z,52.70
2023-02-28T20:31:12.035Z,50.61
2023-02-28T20:33:40.754Z,52.46
2023-02-28T20:36:10.293Z,51.69
2023-02-28T20:38:38.488Z,51.56
2023-02-28T20:41:07.146Z,51.00
2023-02-28T20:43:34.731Z,51.47
2023-02-28T20:46:03.150Z,51.46
2023-02-28T20:48:32.322Z,51.47
2023-02-28T20:51:00.361Z,51.28
2023-02-28T20:53:28.446Z,50.99
2023-02-28T20:55:55.978Z,50.67
2023-02-28T20:58:26.054Z,50.37
2023-02-28T21:01:16.039Z,48.78
2023-02-28T21:03:46.257Z,50.48
2023-02-28T21:06:15.533Z,50.21
2023-02-28T21:08:43.714Z,49.91
2023-02-28T21:11:23.952Z,49.82
2023-02-28T21:13:52.519Z,49.87
2023-02-28T21:16:23.068Z,50.09
2023-02-28T21:18:50.750Z,50.23
2023-02-28T21:21:21.202Z,49.67
2023-02-28T21:23:49.616Z,49.41
2023-02-28T21:26:19.971Z,49.08
2023-02-28T21:28:56.187Z,48.86
2023-02-28T21:31:27.045Z,49.33
2023-02-28T21:33:56.191Z,49.70
2023-02-28T21:36:27.203Z,48.81
2023-02-28T21:38:57.728Z,48.59
2023-02-28T21:41:25.637Z,49.31
2023-02-28T21:43:53.931Z,49.42
2023-02-28T21:46:24.845Z,48.53
2023-02-28T21:48:53.185Z,48.81
2023-02-28T21:51:27.417Z,48.72
2023-02-28T21:53:55.206Z,49.02
2023-02-28T21:56:28.015Z,49.03
2023-02-28T21:59:01.582Z,48.91
2023-02-28T22:01:36.316Z,48.28
2023-02-28T22:04:06.470Z,48.45
2023-02-28T22:06:37.228Z,48.78
2023-02-28T22:09:08.039Z,48.63
2023-02-28T22:11:36.846Z,48.42
2023-02-28T22:14:05.120Z,48.58
2023-02-28T22:16:49.557Z,48.87
2023-02-28T22:19:18.693Z,48.63
2023-02-28T22:21:47.589Z,48.99
2023-02-28T22:24:17.874Z,49.05
2023-02-28T22:26:45.763Z,48.83
2023-02-28T22:29:13.276Z,48.53
2023-02-28T22:31:41.081Z,49.11
2023-02-28T22:34:11.744Z,48.42
2023-02-28T22:36:41.711Z,48.73
2023-02-28T22:39:09.920Z,48.48
2023-02-28T22:41:37.774Z,48.73
2023-02-28T22:44:07.189Z,49.12
2023-02-28T22:46:35.897Z,48.94
2023-02-28T22:49:06.012Z,48.62
2023-02-28T22:51:34.028Z,49.35
2023-02-28T22:54:02.253Z,49.06
2023-02-28T22:56:30.604Z,48.76
2023-02-28T22:59:00.089Z,48.96
2023-02-28T23:01:30.877Z,48.83
2023-02-28T23:03:58.826Z,48.72
2023-02-28T23:06:32.643Z,49.08
2023-02-28T23:09:04.372Z,48.99
2023-02-28T23:11:37.994Z,49.26
2023-02-28T23:14:05.862Z,48.99
2023-02-28T23:16:39.641Z,48.69
2023-02-28T23:19:10.080Z,49.02
2023-02-28T23:21:38.407Z,48.97
2023-02-28T23:24:12.004Z,49.23
2023-02-28T23:26:43.269Z,49.44
2023-02-28T23:29:13.238Z,49.87
2023-02-28T23:31:41.058Z,49.70
2023-02-28T23:34:09.401Z,49.30
2023-02-28T23:36:38.260Z,49.33
2023-02-28T23:39:06.454Z,49.55
2023-02-28T23:41:33.879Z,49.43
2023-02-28T23:44:01.289Z,49.53
2023-02-28T23:46:29.197Z,49.91
2023-02-28T23:48:58.602Z,50.08
2023-02-28T23:51:26.099Z,49.64
2023-02-28T23:53:53.563Z,49.63
2023-02-28T23:56:23.611Z,49.59
2023-02-28T23:58:51.728Z,49.41
